sensor_id;sensor_type;location;lat;lon;timestamp;temperature;humidity
5697;DHT22;2873;50.966;7.210;2024-02-26T00:01:42;8.80;99.90
5697;DHT22;2873;50.966;7.210;2024-02-26T00:04:09;8.60;99.90
5697;DHT22;2873;50.966;7.210;2024-02-26T00:06:35;8.70;99.90
5697;DHT22;2873;50.966;7.210;2024-02-26T00:09:00;8.50;99.90
5697;DHT22;2873;50.966;7.210;2024-02-26T00:11:28;8.80;99.90
5697;DHT22;2873;50.966;7.210;2024-02-26T00:13:53;8.70;99.90
5697;DHT22;2873;50.966;7.210;2024-02-26T00:16:19;8.70;99.90
5697;DHT22;2873;50.966;7.210;2024-02-26T00:18:44;8.80;99.90
5697;DHT22;2873;50.966;7.210;2024-02-26T00:21:10;8.80;99.90
5697;DHT22;2873;50.966;7.210;2024-02-26T00:23:35;8.70;99.90
5697;DHT22;2873;50.966;7.210;2024-02-26T00:26:01;8.80;99.90
5697;DHT22;2873;50.966;7.210;2024-02-26T00:28:26;9.00;99.90
5697;DHT22;2873;50.966;7.210;2024-02-26T00:30:54;9.10;99.90
5697;DHT22;2873;50.966;7.210;2024-02-26T00:33:22;8.90;99.90
5697;DHT22;2873;50.966;7.210;2024-02-26T00:35:48;8.90;99.90
5697;DHT22;2873;50.966;7.210;2024-02-26T00:38:14;9.00;99.90
5697;DHT22;2873;50.966;7.210;2024-02-26T00:40:40;8.90;99.90
5697;DHT22;2873;50.966;7.210;2024-02-26T00:43:08;8.80;99.90
5697;DHT22;2873;50.966;7.210;2024-02-26T00:45:34;8.80;99.90
5697;DHT22;2873;50.966;7.210;2024-02-26T00:47:59;8.90;99.90
5697;DHT22;2873;50.966;7.210;2024-02-26T00:50:34;9.00;99.90
5697;DHT22;2873;50.966;7.210;2024-02-26T00:53:00;9.10;99.90
5697;DHT22;2873;50.966;7.210;2024-02-26T00:55:26;9.10;99.90
5697;DHT22;2873;50.966;7.210;2024-02-26T00:57:51;9.10;99.90
5697;DHT22;2873;50.966;7.210;2024-02-26T01:00:17;9.20;99.90
5697;DHT22;2873;50.966;7.210;2024-02-26T01:02:43;9.10;99.90
5697;DHT22;2873;50.966;7.210;2024-02-26T01:05:12;9.10;99.90
5697;DHT22;2873;50.966;7.210;2024-02-26T01:07:38;9.20;99.90
5697;DHT22;2873;50.966;7.210;2024-02-26T01:10:05;9.10;99.90
5697;DHT22;2873;50.966;7.210;2024-02-26T01:12:34;9.10;99.90
5697;DHT22;2873;50.966;7.210;2024-02-26T01:15:03;9.10;99.90
5697;DHT22;2873;50.966;7.210;2024-02-26T01:17:29;9.10;99.90
5697;DHT22;2873;50.966;7.210;2024-02-26T01:19:55;9.00;99.90
5697;DHT22;2873;50.966;7.210;2024-02-26T01:22:21;9.10;99.90
5697;DHT22;2873;50.966;7.210;2024-02-26T01:24:46;9.10;99.90
5697;DHT22;2873;50.966;7.210;2024-02-26T01:27:12;9.00;99.90
5697;DHT22;2873;50.966;7.210;2024-02-26T01:29:38;9.10;99.90
5697;DHT22;2873;50.966;7.210;2024-02-26T01:32:03;9.00;99.90
5697;DHT22;2873;50.966;7.210;2024-02-26T01:34:31;9.00;99.90
5697;DHT22;2873;50.966;7.210;2024-02-26T01:36:56;8.90;99.90
5697;DHT22;2873;50.966;7.210;2024-02-26T01:39:22;8.90;99.90
5697;DHT22;2873;50.966;7.210;2024-02-26T01:41:47;9.00;99.90
5697;DHT22;2873;50.966;7.210;2024-02-26T01:44:13;9.00;99.90
5697;DHT22;2873;50.966;7.210;2024-02-26T01:46:39;8.90;99.90
5697;DHT22;2873;50.966;7.210;2024-02-26T01:49:06;9.00;99.90
5697;DHT22;2873;50.966;7.210;2024-02-26T01:51:33;8.90;99.90
5697;DHT22;2873;50.966;7.210;2024-02-26T01:54:00;8.90;99.90
5697;DHT22;2873;50.966;7.210;2024-02-26T01:56:27;8.90;99.90
5697;DHT22;2873;50.966;7.210;2024-02-26T01:58:56;8.90;99.90
5697;DHT22;2873;50.966;7.210;2024-02-26T02:01:22;8.90;99.90
5697;DHT22;2873;50.966;7.210;2024-02-26T02:03:50;8.80;99.90
5697;DHT22;2873;50.966;7.210;2024-02-26T02:06:16;8.90;99.90
5697;DHT22;2873;50.966;7.210;2024-02-26T02:08:42;8.80;99.90
5697;DHT22;2873;50.966;7.210;2024-02-26T02:11:08;8.90;99.90
5697;DHT22;2873;50.966;7.210;2024-02-26T02:13:37;8.90;99.90
5697;DHT22;2873;50.966;7.210;2024-02-26T02:16:03;8.80;99.90
5697;DHT22;2873;50.966;7.210;2024-02-26T02:18:28;8.80;99.90
5697;DHT22;2873;50.966;7.210;2024-02-26T02:20:54;8.70;99.90
5697;DHT22;2873;50.966;7.210;2024-02-26T02:23:21;8.80;99.90
5697;DHT22;2873;50.966;7.210;2024-02-26T02:25:47;8.80;99.90
5697;DHT22;2873;50.966;7.210;2024-02-26T02:28:13;8.70;99.90
5697;DHT22;2873;50.966;7.210;2024-02-26T02:30:39;8.50;99.90
5697;DHT22;2873;50.966;7.210;2024-02-26T02:33:05;8.50;99.90
5697;DHT22;2873;50.966;7.210;2024-02-26T02:35:30;8.60;99.90
5697;DHT22;2873;50.966;7.210;2024-02-26T02:37:57;8.40;99.90
5697;DHT22;2873;50.966;7.210;2024-02-26T02:40:22;8.40;99.90
5697;DHT22;2873;50.966;7.210;2024-02-26T02:42:48;8.50;99.90
5697;DHT22;2873;50.966;7.210;2024-02-26T02:45:13;8.50;99.90
5697;DHT22;2873;50.966;7.210;2024-02-26T02:47:39;8.50;99.90
5697;DHT22;2873;50.966;7.210;2024-02-26T02:50:05;8.60;99.90
5697;DHT22;2873;50.966;7.210;2024-02-26T02:52:31;8.50;99.90
5697;DHT22;2873;50.966;7.210;2024-02-26T02:54:56;8.50;99.90
5697;DHT22;2873;50.966;7.210;2024-02-26T02:57:22;8.50;99.90
5697;DHT22;2873;50.966;7.210;2024-02-26T02:59:47;8.50;99.90
5697;DHT22;2873;50.966;7.210;2024-02-26T03:02:13;8.50;99.90
5697;DHT22;2873;50.966;7.210;2024-02-26T03:04:38;8.60;99.90
5697;DHT22;2873;50.966;7.210;2024-02-26T03:07:04;8.50;99.90
5697;DHT22;2873;50.966;7.210;2024-02-26T03:09:30;8.50;99.90
5697;DHT22;2873;50.966;7.210;2024-02-26T03:11:55;8.60;99.90
5697;DHT22;2873;50.966;7.210;2024-02-26T03:14:21;8.40;99.90
5697;DHT22;2873;50.966;7.210;2024-02-26T03:16:46;8.40;99.90
5697;DHT22;2873;50.966;7.210;2024-02-26T03:19:15;8.40;99.90
5697;DHT22;2873;50.966;7.210;2024-02-26T03:21:41;8.50;99.90
5697;DHT22;2873;50.966;7.210;2024-02-26T03:24:07;8.50;99.90
5697;DHT22;2873;50.966;7.210;2024-02-26T03:26:36;8.60;99.90
5697;DHT22;2873;50.966;7.210;2024-02-26T03:29:01;8.50;99.90
5697;DHT22;2873;50.966;7.210;2024-02-26T03:31:28;8.50;99.90
5697;DHT22;2873;50.966;7.210;2024-02-26T03:33:53;8.50;99.90
5697;DHT22;2873;50.966;7.210;2024-02-26T03:36:19;8.50;99.90
5697;DHT22;2873;50.966;7.210;2024-02-26T03:38:45;8.50;99.90
5697;DHT22;2873;50.966;7.210;2024-02-26T03:41:11;8.50;99.90
5697;DHT22;2873;50.966;7.210;2024-02-26T03:43:36;8.40;99.90
5697;DHT22;2873;50.966;7.210;2024-02-26T03:46:02;8.50;99.90
5697;DHT22;2873;50.966;7.210;2024-02-26T03:48:27;8.20;99.90
5697;DHT22;2873;50.966;7.210;2024-02-26T03:50:53;8.40;99.90
5697;DHT22;2873;50.966;7.210;2024-02-26T03:53:18;8.40;99.90
5697;DHT22;2873;50.966;7.210;2024-02-26T03:55:44;8.30;99.90
5697;DHT22;2873;50.966;7.210;2024-02-26T03:58:11;8.40;99.90
5697;DHT22;2873;50.966;7.210;2024-02-26T04:00:37;8.30;99.90
5697;DHT22;2873;50.966;7.210;2024-02-26T04:03:03;8.50;99.90
5697;DHT22;2873;50.966;7.210;2024-02-26T04:05:28;8.40;99.90
5697;DHT22;2873;50.966;7.210;2024-02-26T04:07:54;8.40;99.90
5697;DHT22;2873;50.966;7.210;2024-02-26T04:10:19;8.30;99.90
5697;DHT22;2873;50.966;7.210;2024-02-26T04:12:45;8.50;99.90
5697;DHT22;2873;50.966;7.210;2024-02-26T04:15:11;8.50;99.90
5697;DHT22;2873;50.966;7.210;2024-02-26T04:17:37;8.60;99.90
5697;DHT22;2873;50.966;7.210;2024-02-26T04:20:04;8.60;99.90
5697;DHT22;2873;50.966;7.210;2024-02-26T04:22:32;8.40;99.90
5697;DHT22;2873;50.966;7.210;2024-02-26T04:24:58;8.50;99.90
5697;DHT22;2873;50.966;7.210;2024-02-26T04:27:23;8.40;99.90
5697;DHT22;2873;50.966;7.210;2024-02-26T04:29:49;8.40;99.90
5697;DHT22;2873;50.966;7.210;2024-02-26T04:32:14;8.30;99.90
5697;DHT22;2873;50.966;7.210;2024-02-26T04:34:40;8.10;99.90
5697;DHT22;2873;50.966;7.210;2024-02-26T04:37:06;8.10;99.90
5697;DHT22;2873;50.966;7.210;2024-02-26T04:39:31;8.20;99.90
5697;DHT22;2873;50.966;7.210;2024-02-26T04:41:57;8.20;99.90
5697;DHT22;2873;50.966;7.210;2024-02-26T04:44:22;8.30;99.90
5697;DHT22;2873;50.966;7.210;2024-02-26T04:46:48;8.30;99.90
5697;DHT22;2873;50.966;7.210;2024-02-26T04:49:13;8.10;99.90
5697;DHT22;2873;50.966;7.210;2024-02-26T04:51:39;8.20;99.90
5697;DHT22;2873;50.966;7.210;2024-02-26T04:54:04;8.40;99.90
5697;DHT22;2873;50.966;7.210;2024-02-26T04:56:30;8.20;99.90
5697;DHT22;2873;50.966;7.210;2024-02-26T04:58:55;8.10;99.90
5697;DHT22;2873;50.966;7.210;2024-02-26T05:01:21;8.20;99.90
5697;DHT22;2873;50.966;7.210;2024-02-26T05:03:47;8.20;99.90
5697;DHT22;2873;50.966;7.210;2024-02-26T05:06:12;8.20;99.90
5697;DHT22;2873;50.966;7.210;2024-02-26T05:08:38;8.30;99.90
5697;DHT22;2873;50.966;7.210;2024-02-26T05:11:04;8.30;99.90
5697;DHT22;2873;50.966;7.210;2024-02-26T05:13:30;8.40;99.90
5697;DHT22;2873;50.966;7.210;2024-02-26T05:15:56;8.50;99.90
5697;DHT22;2873;50.966;7.210;2024-02-26T05:18:22;8.40;99.90
5697;DHT22;2873;50.966;7.210;2024-02-26T05:20:47;8.40;99.90
5697;DHT22;2873;50.966;7.210;2024-02-26T05:23:13;8.40;99.90
5697;DHT22;2873;50.966;7.210;2024-02-26T05:25:38;8.40;99.90
5697;DHT22;2873;50.966;7.210;2024-02-26T05:28:04;8.40;99.90
5697;DHT22;2873;50.966;7.210;2024-02-26T05:30:30;8.40;99.90
5697;DHT22;2873;50.966;7.210;2024-02-26T05:32:55;8.20;99.90
5697;DHT22;2873;50.966;7.210;2024-02-26T05:35:21;8.30;99.90
5697;DHT22;2873;50.966;7.210;2024-02-26T05:37:46;8.30;99.90
5697;DHT22;2873;50.966;7.210;2024-02-26T05:40:12;8.30;99.90
5697;DHT22;2873;50.966;7.210;2024-02-26T05:42:38;8.30;99.90
5697;DHT22;2873;50.966;7.210;2024-02-26T05:45:03;8.30;99.90
5697;DHT22;2873;50.966;7.210;2024-02-26T05:47:33;8.30;99.90
5697;DHT22;2873;50.966;7.210;2024-02-26T05:49:58;8.20;99.90
5697;DHT22;2873;50.966;7.210;2024-02-26T05:52:26;8.30;99.90
5697;DHT22;2873;50.966;7.210;2024-02-26T05:54:52;8.20;99.90
5697;DHT22;2873;50.966;7.210;2024-02-26T05:57:17;8.20;99.90
5697;DHT22;2873;50.966;7.210;2024-02-26T05:59:44;8.30;99.90
5697;DHT22;2873;50.966;7.210;2024-02-26T06:02:09;8.20;99.90
5697;DHT22;2873;50.966;7.210;2024-02-26T06:04:35;8.20;99.90
5697;DHT22;2873;50.966;7.210;2024-02-26T06:07:00;8.20;99.90
5697;DHT22;2873;50.966;7.210;2024-02-26T06:09:26;8.20;99.90
5697;DHT22;2873;50.966;7.210;2024-02-26T06:11:52;8.20;99.90
5697;DHT22;2873;50.966;7.210;2024-02-26T06:14:17;8.20;99.90
5697;DHT22;2873;50.966;7.210;2024-02-26T06:16:44;8.00;99.90
5697;DHT22;2873;50.966;7.210;2024-02-26T06:19:09;7.90;99.90
5697;DHT22;2873;50.966;7.210;2024-02-26T06:21:35;8.00;99.90
5697;DHT22;2873;50.966;7.210;2024-02-26T06:24:01;8.00;99.90
5697;DHT22;2873;50.966;7.210;2024-02-26T06:26:26;8.10;99.90
5697;DHT22;2873;50.966;7.210;2024-02-26T06:28:54;8.10;99.90
5697;DHT22;2873;50.966;7.210;2024-02-26T06:31:21;8.10;99.90
5697;DHT22;2873;50.966;7.210;2024-02-26T06:33:48;8.10;99.90
5697;DHT22;2873;50.966;7.210;2024-02-26T06:36:15;8.20;99.90
5697;DHT22;2873;50.966;7.210;2024-02-26T06:38:40;8.20;99.90
5697;DHT22;2873;50.966;7.210;2024-02-26T06:41:06;8.10;99.90
5697;DHT22;2873;50.966;7.210;2024-02-26T06:43:32;8.20;99.90
5697;DHT22;2873;50.966;7.210;2024-02-26T06:45:57;8.20;99.90
5697;DHT22;2873;50.966;7.210;2024-02-26T06:48:24;8.20;99.90
5697;DHT22;2873;50.966;7.210;2024-02-26T06:50:49;8.30;99.90
5697;DHT22;2873;50.966;7.210;2024-02-26T06:53:15;8.20;99.90
5697;DHT22;2873;50.966;7.210;2024-02-26T06:55:41;8.20;99.90
5697;DHT22;2873;50.966;7.210;2024-02-26T06:58:07;8.20;99.90
5697;DHT22;2873;50.966;7.210;2024-02-26T07:00:33;8.00;99.90
5697;DHT22;2873;50.966;7.210;2024-02-26T07:02:58;8.20;99.90
5697;DHT22;2873;50.966;7.210;2024-02-26T07:05:24;8.20;99.90
5697;DHT22;2873;50.966;7.210;2024-02-26T07:07:49;8.30;99.90
5697;DHT22;2873;50.966;7.210;2024-02-26T07:10:15;8.20;99.90
5697;DHT22;2873;50.966;7.210;2024-02-26T07:12:41;8.30;99.90
5697;DHT22;2873;50.966;7.210;2024-02-26T07:15:07;8.30;99.90
5697;DHT22;2873;50.966;7.210;2024-02-26T07:17:33;8.30;99.90
5697;DHT22;2873;50.966;7.210;2024-02-26T07:19:59;8.30;99.90
5697;DHT22;2873;50.966;7.210;2024-02-26T07:22:25;8.40;99.90
5697;DHT22;2873;50.966;7.210;2024-02-26T07:24:51;8.40;99.90
5697;DHT22;2873;50.966;7.210;2024-02-26T07:27:18;8.30;99.90
5697;DHT22;2873;50.966;7.210;2024-02-26T07:29:44;8.40;99.90
5697;DHT22;2873;50.966;7.210;2024-02-26T07:32:09;8.30;99.90
5697;DHT22;2873;50.966;7.210;2024-02-26T07:34:36;8.30;99.90
5697;DHT22;2873;50.966;7.210;2024-02-26T07:37:03;8.40;99.90
5697;DHT22;2873;50.966;7.210;2024-02-26T07:39:28;8.40;99.90
5697;DHT22;2873;50.966;7.210;2024-02-26T07:41:54;8.20;99.90
5697;DHT22;2873;50.966;7.210;2024-02-26T07:44:19;8.30;99.90
5697;DHT22;2873;50.966;7.210;2024-02-26T07:46:45;8.40;99.90
5697;DHT22;2873;50.966;7.210;2024-02-26T07:49:10;8.30;99.90
5697;DHT22;2873;50.966;7.210;2024-02-26T07:51:36;8.20;99.90
5697;DHT22;2873;50.966;7.210;2024-02-26T07:54:02;8.30;99.90
5697;DHT22;2873;50.966;7.210;2024-02-26T07:56:27;8.40;99.90
5697;DHT22;2873;50.966;7.210;2024-02-26T07:58:53;8.40;99.90
5697;DHT22;2873;50.966;7.210;2024-02-26T08:01:18;8.30;99.90
5697;DHT22;2873;50.966;7.210;2024-02-26T08:03:44;8.10;99.90
5697;DHT22;2873;50.966;7.210;2024-02-26T08:06:10;8.10;99.90
5697;DHT22;2873;50.966;7.210;2024-02-26T08:08:35;8.10;99.90
5697;DHT22;2873;50.966;7.210;2024-02-26T08:11:01;8.10;99.90
5697;DHT22;2873;50.966;7.210;2024-02-26T08:13:26;8.20;99.90
5697;DHT22;2873;50.966;7.210;2024-02-26T08:15:52;8.30;99.90
5697;DHT22;2873;50.966;7.210;2024-02-26T08:18:18;8.20;99.90
5697;DHT22;2873;50.966;7.210;2024-02-26T08:20:44;8.30;99.90
5697;DHT22;2873;50.966;7.210;2024-02-26T08:23:10;8.30;99.90
5697;DHT22;2873;50.966;7.210;2024-02-26T08:25:35;8.30;99.90
5697;DHT22;2873;50.966;7.210;2024-02-26T08:28:01;8.40;99.90
5697;DHT22;2873;50.966;7.210;2024-02-26T08:30:30;8.30;99.90
5697;DHT22;2873;50.966;7.210;2024-02-26T08:32:55;8.30;99.90
5697;DHT22;2873;50.966;7.210;2024-02-26T08:35:21;8.40;99.90
5697;DHT22;2873;50.966;7.210;2024-02-26T08:37:47;8.40;99.90
5697;DHT22;2873;50.966;7.210;2024-02-26T08:40:13;8.40;99.90
5697;DHT22;2873;50.966;7.210;2024-02-26T08:42:38;8.40;99.90
5697;DHT22;2873;50.966;7.210;2024-02-26T08:45:05;8.50;99.90
5697;DHT22;2873;50.966;7.210;2024-02-26T08:47:31;8.50;99.90
5697;DHT22;2873;50.966;7.210;2024-02-26T08:49:56;8.30;99.90
5697;DHT22;2873;50.966;7.210;2024-02-26T08:52:22;8.40;99.90
5697;DHT22;2873;50.966;7.210;2024-02-26T08:54:48;8.60;99.90
5697;DHT22;2873;50.966;7.210;2024-02-26T08:57:14;8.50;99.90
5697;DHT22;2873;50.966;7.210;2024-02-26T08:59:40;8.50;99.90
5697;DHT22;2873;50.966;7.210;2024-02-26T09:02:05;8.30;99.90
5697;DHT22;2873;50.966;7.210;2024-02-26T09:04:31;8.30;99.90
5697;DHT22;2873;50.966;7.210;2024-02-26T09:06:56;8.30;99.90
5697;DHT22;2873;50.966;7.210;2024-02-26T09:09:22;8.40;99.90
5697;DHT22;2873;50.966;7.210;2024-02-26T09:11:50;8.30;99.90
5697;DHT22;2873;50.966;7.210;2024-02-26T09:14:18;8.20;99.90
5697;DHT22;2873;50.966;7.210;2024-02-26T09:16:45;8.20;99.90
5697;DHT22;2873;50.966;7.210;2024-02-26T09:19:13;8.00;99.90
5697;DHT22;2873;50.966;7.210;2024-02-26T09:21:43;8.20;99.90
5697;DHT22;2873;50.966;7.210;2024-02-26T09:24:10;8.10;99.90
5697;DHT22;2873;50.966;7.210;2024-02-26T09:26:35;8.30;99.90
5697;DHT22;2873;50.966;7.210;2024-02-26T09:29:01;8.30;99.90
5697;DHT22;2873;50.966;7.210;2024-02-26T09:31:27;8.20;99.90
5697;DHT22;2873;50.966;7.210;2024-02-26T09:33:52;8.20;99.90
5697;DHT22;2873;50.966;7.210;2024-02-26T09:36:18;8.20;99.90
5697;DHT22;2873;50.966;7.210;2024-02-26T09:38:43;8.10;99.90
5697;DHT22;2873;50.966;7.210;2024-02-26T09:41:14;8.20;99.90
5697;DHT22;2873;50.966;7.210;2024-02-26T09:43:44;8.40;99.90
5697;DHT22;2873;50.966;7.210;2024-02-26T09:46:10;8.20;99.90
5697;DHT22;2873;50.966;7.210;2024-02-26T09:48:37;8.30;99.90
5697;DHT22;2873;50.966;7.210;2024-02-26T09:51:03;8.30;99.90
5697;DHT22;2873;50.966;7.210;2024-02-26T09:53:30;8.40;99.90
5697;DHT22;2873;50.966;7.210;2024-02-26T09:56:00;8.30;99.90
5697;DHT22;2873;50.966;7.210;2024-02-26T09:58:28;8.20;99.90
5697;DHT22;2873;50.966;7.210;2024-02-26T10:00:56;8.30;99.90
5697;DHT22;2873;50.966;7.210;2024-02-26T10:03:30;8.40;99.90
5697;DHT22;2873;50.966;7.210;2024-02-26T10:05:56;8.30;99.90
5697;DHT22;2873;50.966;7.210;2024-02-26T10:08:23;8.30;99.90
5697;DHT22;2873;50.966;7.210;2024-02-26T10:10:49;8.30;99.90
5697;DHT22;2873;50.966;7.210;2024-02-26T10:13:15;8.30;99.90
5697;DHT22;2873;50.966;7.210;2024-02-26T10:15:41;8.30;99.90
5697;DHT22;2873;50.966;7.210;2024-02-26T10:18:06;8.40;99.90
5697;DHT22;2873;50.966;7.210;2024-02-26T10:20:32;8.30;99.90
5697;DHT22;2873;50.966;7.210;2024-02-26T10:23:02;8.40;99.90
5697;DHT22;2873;50.966;7.210;2024-02-26T10:25:28;8.50;99.90
5697;DHT22;2873;50.966;7.210;2024-02-26T10:27:53;8.60;99.90
5697;DHT22;2873;50.966;7.210;2024-02-26T10:30:19;8.60;99.90
5697;DHT22;2873;50.966;7.210;2024-02-26T10:32:51;8.60;99.90
5697;DHT22;2873;50.966;7.210;2024-02-26T10:35:18;8.70;99.90
5697;DHT22;2873;50.966;7.210;2024-02-26T10:37:46;8.60;99.90
5697;DHT22;2873;50.966;7.210;2024-02-26T10:40:13;8.70;99.90
5697;DHT22;2873;50.966;7.210;2024-02-26T10:42:40;8.50;99.90
5697;DHT22;2873;50.966;7.210;2024-02-26T10:45:06;8.70;99.90
5697;DHT22;2873;50.966;7.210;2024-02-26T10:47:33;8.70;99.90
5697;DHT22;2873;50.966;7.210;2024-02-26T10:50:00;8.70;99.90
5697;DHT22;2873;50.966;7.210;2024-02-26T10:52:27;8.60;99.90
5697;DHT22;2873;50.966;7.210;2024-02-26T10:54:56;8.70;99.90
5697;DHT22;2873;50.966;7.210;2024-02-26T10:57:24;8.80;99.90
5697;DHT22;2873;50.966;7.210;2024-02-26T10:59:51;8.80;99.90
5697;DHT22;2873;50.966;7.210;2024-02-26T11:02:19;8.80;99.90
5697;DHT22;2873;50.966;7.210;2024-02-26T11:04:46;8.90;99.90
5697;DHT22;2873;50.966;7.210;2024-02-26T11:07:13;9.00;99.90
5697;DHT22;2873;50.966;7.210;2024-02-26T11:09:40;9.10;99.90
5697;DHT22;2873;50.966;7.210;2024-02-26T11:12:11;9.00;99.90
5697;DHT22;2873;50.966;7.210;2024-02-26T11:14:42;9.30;99.90
5697;DHT22;2873;50.966;7.210;2024-02-26T11:17:09;9.30;99.90
5697;DHT22;2873;50.966;7.210;2024-02-26T11:19:36;9.30;99.90
5697;DHT22;2873;50.966;7.210;2024-02-26T11:22:03;9.40;99.90
5697;DHT22;2873;50.966;7.210;2024-02-26T11:24:28;9.30;99.90
5697;DHT22;2873;50.966;7.210;2024-02-26T11:26:57;9.30;99.90
5697;DHT22;2873;50.966;7.210;2024-02-26T11:29:31;9.30;99.90
5697;DHT22;2873;50.966;7.210;2024-02-26T11:31:59;9.40;99.90
5697;DHT22;2873;50.966;7.210;2024-02-26T11:34:25;9.40;99.90
5697;DHT22;2873;50.966;7.210;2024-02-26T11:36:52;9.20;99.90
5697;DHT22;2873;50.966;7.210;2024-02-26T11:39:17;9.50;99.90
5697;DHT22;2873;50.966;7.210;2024-02-26T11:41:43;9.30;99.90
5697;DHT22;2873;50.966;7.210;2024-02-26T11:44:09;9.40;99.90
5697;DHT22;2873;50.966;7.210;2024-02-26T11:46:42;9.20;99.90
5697;DHT22;2873;50.966;7.210;2024-02-26T11:51:54;9.30;99.90
5697;DHT22;2873;50.966;7.210;2024-02-26T11:54:56;9.30;99.90
5697;DHT22;2873;50.966;7.210;2024-02-26T11:57:28;9.20;99.90
5697;DHT22;2873;50.966;7.210;2024-02-26T12:05:16;9.40;99.90
5697;DHT22;2873;50.966;7.210;2024-02-26T12:07:54;9.40;99.90
5697;DHT22;2873;50.966;7.210;2024-02-26T12:10:24;9.60;99.90
5697;DHT22;2873;50.966;7.210;2024-02-26T12:13:06;9.60;99.90
5697;DHT22;2873;50.966;7.210;2024-02-26T12:15:37;9.70;99.90
5697;DHT22;2873;50.966;7.210;2024-02-26T12:18:04;9.70;99.90
5697;DHT22;2873;50.966;7.210;2024-02-26T12:20:31;9.80;99.90
5697;DHT22;2873;50.966;7.210;2024-02-26T12:22:57;10.00;99.90
5697;DHT22;2873;50.966;7.210;2024-02-26T12:25:27;9.90;99.90
5697;DHT22;2873;50.966;7.210;2024-02-26T12:27:56;9.90;99.90
5697;DHT22;2873;50.966;7.210;2024-02-26T12:30:22;9.80;99.90
5697;DHT22;2873;50.966;7.210;2024-02-26T12:32:49;9.90;99.90
5697;DHT22;2873;50.966;7.210;2024-02-26T12:35:15;9.90;99.90
5697;DHT22;2873;50.966;7.210;2024-02-26T12:37:42;10.00;99.90
5697;DHT22;2873;50.966;7.210;2024-02-26T12:40:09;10.00;99.90
5697;DHT22;2873;50.966;7.210;2024-02-26T12:42:38;10.00;99.90
5697;DHT22;2873;50.966;7.210;2024-02-26T12:45:10;9.90;99.90
5697;DHT22;2873;50.966;7.210;2024-02-26T12:47:40;10.00;99.90
5697;DHT22;2873;50.966;7.210;2024-02-26T12:50:08;10.10;99.90
5697;DHT22;2873;50.966;7.210;2024-02-26T12:52:43;10.10;99.90
5697;DHT22;2873;50.966;7.210;2024-02-26T12:55:09;10.00;99.90
5697;DHT22;2873;50.966;7.210;2024-02-26T12:57:38;9.80;99.90
5697;DHT22;2873;50.966;7.210;2024-02-26T13:00:08;9.90;99.90
5697;DHT22;2873;50.966;7.210;2024-02-26T13:02:36;10.00;99.90
5697;DHT22;2873;50.966;7.210;2024-02-26T13:05:03;9.90;99.90
5697;DHT22;2873;50.966;7.210;2024-02-26T13:07:29;9.90;99.90
5697;DHT22;2873;50.966;7.210;2024-02-26T13:09:55;10.00;99.90
5697;DHT22;2873;50.966;7.210;2024-02-26T13:12:21;10.00;99.90
5697;DHT22;2873;50.966;7.210;2024-02-26T13:14:47;10.10;99.90
5697;DHT22;2873;50.966;7.210;2024-02-26T13:17:12;10.30;99.90
5697;DHT22;2873;50.966;7.210;2024-02-26T13:19:49;10.30;99.90
5697;DHT22;2873;50.966;7.210;2024-02-26T13:22:14;10.20;99.90
5697;DHT22;2873;50.966;7.210;2024-02-26T13:24:40;10.20;99.90
5697;DHT22;2873;50.966;7.210;2024-02-26T13:27:05;10.30;99.90
5697;DHT22;2873;50.966;7.210;2024-02-26T13:29:31;10.30;99.90
5697;DHT22;2873;50.966;7.210;2024-02-26T13:32:00;10.30;99.90
5697;DHT22;2873;50.966;7.210;2024-02-26T13:34:27;10.30;99.90
5697;DHT22;2873;50.966;7.210;2024-02-26T13:36:56;10.20;99.90
5697;DHT22;2873;50.966;7.210;2024-02-26T13:39:26;10.40;99.90
5697;DHT22;2873;50.966;7.210;2024-02-26T13:41:53;10.00;99.90
5697;DHT22;2873;50.966;7.210;2024-02-26T13:44:20;10.00;99.90
5697;DHT22;2873;50.966;7.210;2024-02-26T13:46:46;10.00;99.90
5697;DHT22;2873;50.966;7.210;2024-02-26T13:49:12;10.10;99.90
5697;DHT22;2873;50.966;7.210;2024-02-26T13:51:41;10.00;99.90
5697;DHT22;2873;50.966;7.210;2024-02-26T13:54:08;10.00;99.90
5697;DHT22;2873;50.966;7.210;2024-02-26T13:56:35;10.00;99.90
5697;DHT22;2873;50.966;7.210;2024-02-26T13:59:01;10.00;99.90
5697;DHT22;2873;50.966;7.210;2024-02-26T14:01:26;10.10;99.90
5697;DHT22;2873;50.966;7.210;2024-02-26T14:03:52;10.10;99.90
5697;DHT22;2873;50.966;7.210;2024-02-26T14:06:20;10.10;99.90
5697;DHT22;2873;50.966;7.210;2024-02-26T14:08:46;10.20;99.90
5697;DHT22;2873;50.966;7.210;2024-02-26T14:11:11;10.10;99.90
5697;DHT22;2873;50.966;7.210;2024-02-26T14:13:37;10.30;99.90
5697;DHT22;2873;50.966;7.210;2024-02-26T14:16:02;10.30;99.90
5697;DHT22;2873;50.966;7.210;2024-02-26T14:18:28;10.30;99.90
5697;DHT22;2873;50.966;7.210;2024-02-26T14:20:53;10.40;99.90
5697;DHT22;2873;50.966;7.210;2024-02-26T14:23:19;10.30;99.90
5697;DHT22;2873;50.966;7.210;2024-02-26T14:25:44;10.40;99.90
5697;DHT22;2873;50.966;7.210;2024-02-26T14:28:11;10.40;99.90
5697;DHT22;2873;50.966;7.210;2024-02-26T14:30:36;10.50;99.90
5697;DHT22;2873;50.966;7.210;2024-02-26T14:33:02;10.40;99.90
5697;DHT22;2873;50.966;7.210;2024-02-26T14:35:28;10.40;99.90
5697;DHT22;2873;50.966;7.210;2024-02-26T14:37:53;10.50;99.90
5697;DHT22;2873;50.966;7.210;2024-02-26T14:40:20;10.50;99.90
5697;DHT22;2873;50.966;7.210;2024-02-26T14:42:46;10.60;99.90
5697;DHT22;2873;50.966;7.210;2024-02-26T14:45:12;10.50;99.90
5697;DHT22;2873;50.966;7.210;2024-02-26T14:47:38;10.40;99.90
5697;DHT22;2873;50.966;7.210;2024-02-26T14:50:04;10.50;99.90
5697;DHT22;2873;50.966;7.210;2024-02-26T14:52:30;10.60;99.90
5697;DHT22;2873;50.966;7.210;2024-02-26T14:54:56;10.60;99.90
5697;DHT22;2873;50.966;7.210;2024-02-26T14:57:23;10.70;99.90
5697;DHT22;2873;50.966;7.210;2024-02-26T14:59:51;10.60;99.90
5697;DHT22;2873;50.966;7.210;2024-02-26T15:02:17;10.50;99.90
5697;DHT22;2873;50.966;7.210;2024-02-26T15:04:43;10.60;99.90
5697;DHT22;2873;50.966;7.210;2024-02-26T15:07:09;10.60;99.90
5697;DHT22;2873;50.966;7.210;2024-02-26T15:09:37;10.60;99.90
5697;DHT22;2873;50.966;7.210;2024-02-26T15:12:03;10.60;99.90
5697;DHT22;2873;50.966;7.210;2024-02-26T15:14:32;10.70;99.90
5697;DHT22;2873;50.966;7.210;2024-02-26T15:16:57;10.60;99.90
5697;DHT22;2873;50.966;7.210;2024-02-26T15:19:23;10.50;99.90
5697;DHT22;2873;50.966;7.210;2024-02-26T15:21:49;10.50;99.90
5697;DHT22;2873;50.966;7.210;2024-02-26T15:24:15;10.60;99.90
5697;DHT22;2873;50.966;7.210;2024-02-26T15:26:44;10.60;99.90
5697;DHT22;2873;50.966;7.210;2024-02-26T15:29:10;10.60;99.90
5697;DHT22;2873;50.966;7.210;2024-02-26T15:31:38;10.60;99.90
5697;DHT22;2873;50.966;7.210;2024-02-26T15:34:04;10.50;99.90
5697;DHT22;2873;50.966;7.210;2024-02-26T15:36:30;10.60;99.90
5697;DHT22;2873;50.966;7.210;2024-02-26T15:38:55;10.60;99.90
5697;DHT22;2873;50.966;7.210;2024-02-26T15:41:22;10.70;99.90
5697;DHT22;2873;50.966;7.210;2024-02-26T15:43:48;10.70;99.90
5697;DHT22;2873;50.966;7.210;2024-02-26T15:46:13;10.90;99.90
5697;DHT22;2873;50.966;7.210;2024-02-26T15:48:39;10.70;99.90
5697;DHT22;2873;50.966;7.210;2024-02-26T15:51:05;10.70;99.90
5697;DHT22;2873;50.966;7.210;2024-02-26T15:53:30;10.70;99.90
5697;DHT22;2873;50.966;7.210;2024-02-26T15:55:56;10.70;99.90
5697;DHT22;2873;50.966;7.210;2024-02-26T15:58:21;10.70;99.90
5697;DHT22;2873;50.966;7.210;2024-02-26T16:00:48;10.70;99.90
5697;DHT22;2873;50.966;7.210;2024-02-26T16:03:14;10.70;99.90
5697;DHT22;2873;50.966;7.210;2024-02-26T16:05:40;10.80;99.90
5697;DHT22;2873;50.966;7.210;2024-02-26T16:08:19;10.70;99.90
5697;DHT22;2873;50.966;7.210;2024-02-26T16:10:46;10.80;99.90
5697;DHT22;2873;50.966;7.210;2024-02-26T16:13:12;10.70;99.90
5697;DHT22;2873;50.966;7.210;2024-02-26T16:15:40;10.70;99.90
5697;DHT22;2873;50.966;7.210;2024-02-26T16:18:07;10.60;99.90